Tiempo atmosférico en la estación meteorológica de Riaño, León (1090 m.)



Fecha
DESCASC
Temp. máxima en grados centígrados (hora)
DESCASC
Temp. mínima en grados centígrados (hora)
DESCASC
Temp. media en grados centígrados
DESCASC
Racha de viento máxima en m/sg (hora)
DESCASC
Velocidad máxima media en intervalos de 10 minutos(hora)
DESCASC
Precipitaciones diarias en mm
DESCASC
Precipitaciones de 00:00 a 06:00 en mm
DESCASC
Precipitaciones de 06:00 a 12:00 en mm
DESCASC
Precipitaciones de 12:00 a 18:00 en mm
DESCASC
Precipitaciones de 18:00 a 24:00 en mm
DESCASC
18-11-2019 4.1 (14:30) 0.5 (08:20) 2.3 12.5 (00:10) 7.78 (00:10) 9 2.4 6.4 0.2 0
17-11-2019 4.9 (14:50) 0.2 (00:10) 2.6 12.22 (23:50) 7.78 (22:50) 17.8 0.8 6.2 8.4 2.4
16-11-2019 -- (--) -- (--) -- -- (--) -- (--) -- 0 0.4 9 --
15-11-2019 1.1 (11:50) -0.2 (20:20) 0.5 19.44 (10:10) 7.5 (10:30) 2.8 0 0.6 2 0.2
14-11-2019 3.6 (00:50) -0.2 (00:00) 1.7 11.11 (01:40) 6.11 (02:40) 4.4 3.6 0.4 0.4 0
13-11-2019 8.1 (15:40) 2.9 (00:00) 5.5 11.39 (05:30) 5.56 (08:00) 12 11.2 0.6 0 0.2
12-11-2019 6.5 (14:20) 1.8 (00:00) 4.1 5 (02:20) 3.06 (19:20) 20.2 1 0.8 3.8 14.6
11-11-2019 7.3 (10:20) 1.4 (01:10) 4.4 16.39 (11:50) 9.17 (14:10) 15.4 3.4 8 3.8 0.2
10-11-2019 2.7 (13:50) 0.2 (00:00) 1.5 13.61 (15:30) 5.28 (17:30) 21.2 0.8 4.8 10.6 5
09-11-2019 7.1 (15:40) 0.6 (00:00) 3.8 12.78 (19:50) 5.56 (19:50) 21.2 3.2 5.2 3.6 9.2
08-11-2019 3.1 (23:50) 0.3 (00:00) 1.7 13.06 (23:50) 6.11 (23:50) 21.4 0 3.8 12.6 5
07-11-2019 7.1 (00:20) 0.9 (00:00) 4 11.11 (15:00) 5 (16:20) 1.8 0.8 0.8 0.2 0
06-11-2019 8.4 (14:00) 3.5 (00:00) 5.9 11.11 (01:20) 4.72 (01:30) 5.4 1.8 0.6 0 3
05-11-2019 5.5 (17:00) 2.5 (00:00) 4 18.33 (16:40) 8.61 (16:40) 28.4 0 7.4 11.8 9.2
04-11-2019 12.4 (13:30) 3.4 (00:00) 7.9 13.61 (11:30) 6.67 (13:10) 1.8 0.6 0.8 0.4 0
03-11-2019 13 (16:00) 4.2 (00:00) 8.6 13.89 (04:30) 6.94 (04:40) 5.4 3.6 0.6 0.4 0.8
02-11-2019 12 (00:00) 8 (00:00) 10 19.72 (20:50) 7.5 (20:40) 1.6 0.6 0.8 0.2 0
01-11-2019 14.9 (15:20) 11.4 (00:00) 13.1 8.33 (16:30) 3.33 (21:20) 9.6 0.2 0.2 8.8 0.4
31-10-2019 15.3 (15:10) 7.5 (07:40) 11.4 2.5 (07:30) 1.67 (04:10) 1.6 0 0 0 1.6
30-10-2019 13.8 (13:50) 7.1 (00:00) 10.5 3.61 (16:20) 2.22 (16:10) 2.6 0 0.4 0.4 1.8
29-10-2019 18 (15:20) 8.1 (00:00) 13.1 6.67 (14:20) 4.17 (13:00) 0 0 0 0 0
28-10-2019 18.7 (15:30) 6.6 (00:00) 12.7 6.67 (17:10) 5 (17:00) 0 0 0 0 0
27-10-2019 18.1 (14:30) 5.6 (00:00) 11.9 4.17 (14:50) 2.5 (15:00) 0 0 0 0 0
26-10-2019 19 (16:40) 2.6 (00:00) 10.8 6.67 (15:30) 3.61 (15:20) 0 0 0 0 0
25-10-2019 16.6 (16:10) 5 (00:00) 10.8 4.17 (13:20) 2.5 (11:00) 0 0 0 0 0
24-10-2019 13.8 (17:00) 4 (00:00) 8.9 8.33 (03:40) 4.17 (01:00) 2.4 0.4 1.8 0.2 0
23-10-2019 8.1 (10:20) 4 (00:00) 6.1 18.61 (05:10) 13.61 (05:10) 8.2 0 0.8 4 3.4
22-10-2019 8.9 (14:00) 1 (00:00) 4.9 12.5 (21:40) 6.39 (16:00) 0.4 0 0 0.2 0.2

Gráficas

Temp. máximas Temp. mínimas Temp. medias Precipitaciones Rachas de viento máximas Velocidades máximas media en intervalos de 10 minutos

Datos horarios

Fecha y hora oficial Temperatura (ºC) Velocidad del viento (km/h) Dirección del viento Racha (km/h) Dirección de racha Precipitación (mm) Presión (hPa) Tendencia (hPa) Humedad (%)
2019-11-20 23:00:00 2.1 0 Calma 6 Sudoeste 0 -- -- 99
2019-11-20 22:00:00 2.3 0 Calma 7 Sudoeste 0 -- -- 99
2019-11-20 21:00:00 2.2 4 Sur 6 Sur 0 -- -- 99
2019-11-20 20:00:00 2.4 2 Sudoeste 8 Sur 0 -- -- 98
2019-11-20 19:00:00 2.4 3 Sudoeste 8 Sur 0 -- -- 98
2019-11-20 18:00:00 2.6 0 Calma 5 Noroeste 0 -- -- 98
2019-11-20 17:00:00 3 3 Sudeste 17 Este 0 -- -- 94
2019-11-20 16:00:00 3 10 Este 16 Este 0 -- -- 95
2019-11-20 15:00:00 3.3 8 Este 14 Este 0 -- -- 93
2019-11-20 14:00:00 3.4 9 Este 14 Este 0 -- -- 94
2019-11-20 13:00:00 3.5 9 Este 17 Este 0 -- -- 93
2019-11-20 12:00:00 3.3 12 Este 17 Sudeste 0 -- -- 94
2019-11-20 11:00:00 2.6 10 Este 16 Sudeste 0 -- -- 97
2019-11-20 10:00:00 2.3 3 Sur 13 Sudeste 0 -- -- 98
2019-11-20 09:00:00 1.9 4 Sudeste 8 Este 0 -- -- 100
2019-11-20 08:00:00 1.5 2 Sudeste 5 Sudoeste 0 -- -- 100
2019-11-20 07:00:00 1.4 4 Sudoeste 5 Sudoeste 0 -- -- 100
2019-11-20 06:00:00 1.2 0 Calma 5 Sudoeste 0 -- -- 100
2019-11-20 05:00:00 1.1 2 Noroeste 3 Noroeste 0 -- -- 100
2019-11-20 04:00:00 1 2 Sudoeste 3 Sudoeste 0 -- -- 99
2019-11-20 03:00:00 1 2 Sur 4 Sudoeste 0 -- -- 99
2019-11-20 02:00:00 0.9 0 Calma 6 Sudoeste 0 -- -- 99
2019-11-20 01:00:00 1.1 0 Calma 5 Este 0 -- -- 99
2019-11-20 00:00:00 0.9 0 Calma 6 Este 0 -- -- 98
2019-11-19 23:00:00 0.8 0 Calma 5 Sudoeste 0 -- -- 98
2019-11-19 22:00:00 0.6 0 Calma 3 Sudoeste 0 -- -- 97
2019-11-19 21:00:00 0.7 0 Calma 3 Sur 0 -- -- 96
2019-11-19 20:00:00 0.8 0 Calma 4 Nordeste 0 -- -- 96
2019-11-19 19:00:00 0.8 0 Calma 5 Sudeste 0 -- -- 94
2019-11-19 18:00:00 1.9 0 Calma 4 Sudoeste 0 -- -- 89
2019-11-19 17:00:00 3.4 0 Calma 5 Sur 0 -- -- 83
2019-11-19 16:00:00 4.5 3 Sudoeste 4 Sudoeste 0 -- -- 78
2019-11-19 15:00:00 4.4 0 Calma 3 Sur 0 -- -- 83
2019-11-19 14:00:00 3.7 2 Sudeste 3 Sudeste 0 -- -- 82
2019-11-19 13:00:00 2.9 0 Calma 7 Sudeste 0 -- -- 85
2019-11-19 12:00:00 1.5 4 Este 10 Este 0 -- -- 90
2019-11-19 11:00:00 0.2 3 Sur 13 Oeste 0 -- -- 95
2019-11-19 10:00:00 -0.5 5 Este 14 Este 0 -- -- 97
2019-11-19 09:00:00 -0.9 8 Este 14 Este 0 -- -- 97
2019-11-19 08:00:00 -0.8 10 Este 15 Este 0 -- -- 98
2019-11-19 07:00:00 -0.7 9 Este 14 Este 0 -- -- 98
2019-11-19 06:00:00 -0.4 6 Este 15 Este 0 -- -- 98
2019-11-19 05:00:00 -0.2 9 Este 18 Este 0 -- -- 96
2019-11-19 04:00:00 0.3 5 Este 10 Este 0 -- -- 96
2019-11-19 03:00:00 0.6 6 Sudeste 12 Sudeste 0 -- -- 96
2019-11-19 02:00:00 0.7 2 Sur 8 Sudeste 0 -- -- 98
2019-11-19 01:00:00 0.5 6 Sudoeste 12 Sudoeste 0 -- -- 98
2019-11-19 00:00:00 1.1 3 Sudeste 8 Este 0 -- -- 97
2019-11-18 23:00:00 1.2 4 Sur 6 Sur 0 -- -- 96
2019-11-18 22:00:00 1.4 0 Calma 9 Sudoeste 0 -- -- 96
2019-11-18 21:00:00 1.6 5 Sudoeste 8 Sudoeste 0 -- -- 96
2019-11-18 20:00:00 1.5 0 Calma 6 Sudoeste 0 -- -- 96
2019-11-18 19:00:00 1.7 0 Calma 5 Norte 0 -- -- 94
2019-11-18 18:00:00 2.4 2 Sudoeste 9 Nordeste 0 -- -- 92
2019-11-18 17:00:00 3 2 Sudeste 15 Nordeste 0 -- -- 88
2019-11-18 16:00:00 3 2 Norte 17 Norte 0 -- -- 91
2019-11-18 15:00:00 3.5 13 Norte 21 Nordeste 0 -- -- 91
2019-11-18 14:00:00 3.8 4 Norte 23 Norte 0 -- -- 87
2019-11-18 13:00:00 3.4 14 Norte 22 Norte 0.2 -- -- 92
2019-11-18 12:00:00 3.5 6 Norte 14 Nordeste 2 -- -- 92
2019-11-18 11:00:00 1.7 0 Calma 6 Sudoeste 2 -- -- 98
2019-11-18 10:00:00 0.7 5 Sudoeste 16 Nordeste 1 -- -- 99
2019-11-18 09:00:00 0.7 4 Sudoeste 10 Noroeste 0.4 -- -- 99
2019-11-18 08:00:00 0.6 0 Calma 23 Nordeste 0.4 -- -- 98
2019-11-18 07:00:00 1.5 15 Nordeste 22 Noroeste 0.6 -- -- 98
2019-11-18 06:00:00 1.5 5 Oeste 18 Norte 0.4 -- -- 94
2019-11-18 05:00:00 0.8 3 Sur 17 Nordeste 1.2 -- -- 98
2019-11-18 04:00:00 1.8 12 Norte 37 Norte 0.2 -- -- 94
2019-11-18 03:00:00 2.2 20 Noroeste 39 Norte 0.2 -- -- 90
2019-11-18 02:00:00 1.9 14 Norte 31 Norte 0.2 -- -- 96
2019-11-18 01:00:00 2.3 11 Noroeste 45 Norte 0.2 -- -- 93
2019-11-18 00:00:00 1.9 26 Norte 44 Nordeste 0.4 -- -- 98
2019-11-17 23:00:00 1.8 23 Norte 43 Norte 0.2 -- -- 98
2019-11-17 22:00:00 1.4 24 Norte 32 Norte 0.6 -- -- 99
2019-11-17 21:00:00 0.9 4 Sur 20 Nordeste 1 -- -- 97
2019-11-17 20:00:00 1.8 7 Este 17 Norte 0.2 -- -- 95
2019-11-17 19:00:00 1.6 2 Sudoeste 8 Norte 0 -- -- 92
2019-11-17 18:00:00 2.4 4 Sudoeste 29 Oeste 0.2 -- -- 86
2019-11-17 17:00:00 4 3 Norte 11 Noroeste 0.6 -- -- 91
2019-11-17 16:00:00 4.5 0 Calma 19 Noroeste 0.8 -- -- 87
2019-11-17 15:00:00 4.6 4 Noroeste 13 Norte 1.8 -- -- 86
2019-11-17 14:00:00 -- -- -- -- -- -- -- -- --
2019-11-17 13:00:00 -- -- -- -- -- -- -- -- --
2019-11-17 12:00:00 -- -- -- -- -- -- -- -- --
2019-11-17 11:00:00 -- -- -- -- -- -- -- -- --
2019-11-17 10:00:00 -- -- -- -- -- -- -- -- --
2019-11-17 09:00:00 -- -- -- -- -- -- -- -- --
2019-11-17 08:00:00 -- -- -- -- -- -- -- -- --
2019-11-17 07:00:00 -- -- -- -- -- -- -- -- --
2019-11-17 06:00:00 -- -- -- -- -- -- -- -- --
2019-11-17 05:00:00 -- -- -- -- -- -- -- -- --
2019-11-17 04:00:00 -- -- -- -- -- -- -- -- --
2019-11-17 03:00:00 -- -- -- -- -- -- -- -- --
2019-11-17 02:00:00 -- -- -- -- -- -- -- -- --
2019-11-17 01:00:00 -- -- -- -- -- -- -- -- --
2019-11-17 00:00:00 -- -- -- -- -- -- -- -- --
2019-11-16 23:00:00 -- -- -- -- -- -- -- -- --
2019-11-16 22:00:00 -- -- -- -- -- -- -- -- --
2019-11-16 21:00:00 -- -- -- -- -- -- -- -- --
2019-11-16 20:00:00 -- -- -- -- -- -- -- -- --
2019-11-16 19:00:00 -- -- -- -- -- -- -- -- --
2019-11-16 18:00:00 1.3 5 Oeste 13 Sudoeste 0.6 -- -- 87
2019-11-16 17:00:00 1.9 8 Oeste 14 Oeste 1.6 -- -- 84
2019-11-16 16:00:00 1.8 0 Calma 13 Sudoeste 1.8 -- -- 93
2019-11-16 15:00:00 1.5 8 Sudoeste 14 Sudoeste 1.6 -- -- 92
2019-11-16 14:00:00 1.6 5 Sudoeste 17 Sudoeste 2.2 -- -- 91
2019-11-16 13:00:00 1.8 8 Sudoeste 29 Oeste 1.2 -- -- 88
2019-11-16 12:00:00 2.1 9 Noroeste 30 Noroeste 0.4 -- -- 87
2019-11-16 11:00:00 1.2 0 Calma -- -- 0 -- -- 94
2019-11-16 10:00:00 0.7 0 Calma -- -- 0 -- -- 95
2019-11-16 09:00:00 0.2 0 Calma -- -- 0 -- -- 97
2019-11-16 08:00:00 -0.1 0 Calma -- -- 0 -- -- 96
2019-11-16 07:00:00 -0.1 0 Calma -- -- 0 -- -- 93
2019-11-16 06:00:00 0.3 0 Calma -- -- 0 -- -- 90
2019-11-16 05:00:00 0.3 0 Calma -- -- 0 -- -- 91
2019-11-16 04:00:00 0.2 0 Calma -- -- 0 -- -- 97
2019-11-16 03:00:00 0.5 0 Calma -- -- 0 -- -- 91
2019-11-16 02:00:00 0.1 0 Calma -- -- 0 -- -- 99
2019-11-16 01:00:00 -0.1 0 Calma -- -- 0 -- -- 99
2019-11-16 00:00:00 -0.1 0 Calma -- -- 0 -- -- 99
2019-11-15 23:00:00 -0.1 0 Calma -- -- 0 -- -- 99
2019-11-15 22:00:00 -0.1 0 Calma -- -- 0 -- -- 96
2019-11-15 21:00:00 0 0 Calma -- -- 0 -- -- 97
2019-11-15 20:00:00 -0.1 0 Calma -- -- 0.2 -- -- 98
2019-11-15 19:00:00 0.2 0 Calma -- -- 0 -- -- 96
2019-11-15 18:00:00 0.1 0 Calma -- -- 0.2 -- -- 97
2019-11-15 17:00:00 0.2 0 Calma -- -- 0.2 -- -- 97
2019-11-15 16:00:00 0.5 0 Calma -- -- 0.4 -- -- 97
2019-11-15 15:00:00 0.6 0 Calma 0 Calma 0.2 -- -- 95
2019-11-15 14:00:00 0.3 0 Calma 14 Oeste 0.6 -- -- 97
2019-11-15 13:00:00 0.9 3 Sudoeste 38 Noroeste 0.4 -- -- 94
2019-11-15 12:00:00 1 17 Noroeste 44 Norte 0.4 -- -- 91
2019-11-15 11:00:00 0.8 18 Norte 70 Nordeste 0.2 -- -- 95
2019-11-15 10:00:00 0.7 23 Norte 49 Norte 0 -- -- 95
2019-11-15 09:00:00 0.1 0 Calma -- -- 0 -- -- 96
2019-11-15 08:00:00 0.5 0 Calma -- -- 0 -- -- 95
2019-11-15 07:00:00 0.2 0 Calma -- -- 0 -- -- 98
2019-11-15 06:00:00 0.1 0 Calma -- -- 0 -- -- 98
2019-11-15 05:00:00 0.1 0 Calma -- -- 0 -- -- 98
2019-11-15 04:00:00 0.1 0 Calma -- -- 0 -- -- 98
2019-11-15 03:00:00 0.2 0 Calma -- -- 0 -- -- 98
2019-11-15 02:00:00 0.1 0 Calma -- -- 0 -- -- 98
2019-11-15 01:00:00 0.1 0 Calma -- -- 0 -- -- 98
2019-11-15 00:00:00 0 0 Calma -- -- 0 -- -- 98
2019-11-14 23:00:00 -0.1 0 Calma -- -- 0 -- -- 98
2019-11-14 22:00:00 -0.2 0 Calma -- -- 0 -- -- 96
2019-11-14 21:00:00 -0.1 0 Calma -- -- 0 -- -- 96
2019-11-14 20:00:00 0.1 0 Calma -- -- 0 -- -- 98
2019-11-14 19:00:00 0.3 0 Calma -- -- 0 -- -- 97
2019-11-14 18:00:00 0.4 0 Calma 17 Norte 0 -- -- 95
2019-11-14 17:00:00 1.5 6 Nordeste 19 Norte 0.2 -- -- 94
2019-11-14 16:00:00 2 2 Noroeste 7 Oeste 0 -- -- 88
2019-11-14 15:00:00 2 4 Sudeste 20 Este 0 -- -- 89
2019-11-14 14:00:00 2.1 6 Este 11 Sudeste 0.2 -- -- 90
2019-11-14 13:00:00 1.3 5 Sudoeste 18 Sudoeste 0 -- -- 86
2019-11-14 12:00:00 2.2 3 Oeste 12 Sur 0 -- -- 77
2019-11-14 11:00:00 2.3 6 Sur 13 Sur 0.2 -- -- 77
2019-11-14 10:00:00 1.8 5 Sur 14 Sudeste 0.2 -- -- 82
2019-11-14 09:00:00 0.2 3 Sudoeste 21 Noroeste 0 -- -- 78
2019-11-14 08:00:00 -0.1 4 Sudoeste 17 Oeste 0 -- -- 80
2019-11-14 07:00:00 0 4 Oeste 29 Noroeste 0 -- -- 78
2019-11-14 06:00:00 0.3 10 Noroeste 37 Noroeste 0 -- -- 81
2019-11-14 05:00:00 0.4 8 Noroeste 25 Noroeste 0 -- -- 96
2019-11-14 04:00:00 1 11 Noroeste 23 Norte 0.6 -- -- 95
2019-11-14 03:00:00 1.5 13 Norte 28 Norte 0.8 -- -- 98
2019-11-14 02:00:00 2.3 12 Nordeste 40 Norte 1.6 -- -- 96
2019-11-14 01:00:00 3.6 2 Noroeste 6 Este 0.6 -- -- 97
2019-11-14 00:00:00 3.4 2 Noroeste 12 Este 0.2 -- -- 95
2019-11-13 23:00:00 3 2 Sudoeste 9 Sudeste 0 -- -- 92
2019-11-13 22:00:00 2.9 3 Sudeste 7 Sur 0 -- -- 95
2019-11-13 21:00:00 2.9 0 Calma 7 Oeste 0 -- -- 94
2019-11-13 20:00:00 3.9 0 Calma 4 Noroeste 0 -- -- 96
2019-11-13 19:00:00 4.5 0 Calma 6 Sur 0 -- -- 92
2019-11-13 18:00:00 5.9 0 Calma 5 Noroeste 0 -- -- 89
2019-11-13 17:00:00 7.9 0 Calma 6 Noroeste 0 -- -- 80
2019-11-13 16:00:00 8 4 Nordeste 19 Norte 0 -- -- 82
2019-11-13 15:00:00 7.5 15 Norte 21 Norte 0 -- -- 88
2019-11-13 14:00:00 7.7 6 Norte 21 Norte 0 -- -- 85
2019-11-13 13:00:00 7.6 8 Norte 23 Nordeste 0 -- -- 85
2019-11-13 12:00:00 7.3 6 Noroeste 19 Norte 0 -- -- 85
2019-11-13 11:00:00 6 13 Nordeste 20 Norte 0.2 -- -- 96
2019-11-13 10:00:00 5.7 4 Sur 17 Norte 0 -- -- 96
2019-11-13 09:00:00 5.2 12 Nordeste 21 Norte 0.2 -- -- 97
2019-11-13 08:00:00 5 20 Norte 31 Norte 0 -- -- 93
2019-11-13 07:00:00 5.2 19 Norte 33 Nordeste 0.2 -- -- 97
2019-11-13 06:00:00 5.6 10 Norte 41 Noroeste 0.4 -- -- 93
2019-11-13 05:00:00 5.6 15 Norte 30 Norte 0.2 -- -- 98
2019-11-13 04:00:00 4.1 6 Sur 10 Sudeste 0.6 -- -- 100
2019-11-13 03:00:00 3.9 3 Noroeste 12 Este 2 -- -- 100
2019-11-13 02:00:00 3.9 0 Calma 11 Sudoeste 5.2 -- -- 100
2019-11-13 01:00:00 3.7 4 Sudoeste 8 Sudoeste 2.8 -- -- 100
2019-11-13 00:00:00 3.7 0 Calma 5 Sur 3.2 -- -- 100
2019-11-12 23:00:00 3.7 0 Calma 4 Noroeste 1.8 -- -- 99
2019-11-12 22:00:00 3.7 0 Calma 6 Sur 3 -- -- 99
2019-11-12 21:00:00 3.6 3 Sur 6 Sur 2 -- -- 98
2019-11-12 20:00:00 3.7 2 Sur 15 Este 2 -- -- 98
2019-11-12 19:00:00 3.9 7 Este 13 Este 2.6 -- -- 97
2019-11-12 18:00:00 4.4 3 Este 5 Sudeste 2.4 -- -- 95
2019-11-12 17:00:00 5 3 Sudoeste 10 Este 0.8 -- -- 96
2019-11-12 16:00:00 5.5 3 Sudeste 9 Este 0.4 -- -- 94
2019-11-12 15:00:00 5.8 5 Este 10 Este 0.2 -- -- 92
2019-11-12 14:00:00 6.3 3 Nordeste 11 Nordeste 0 -- -- 87
2019-11-12 13:00:00 6.2 4 Nordeste 7 Nordeste 0 -- -- 90
2019-11-12 12:00:00 5.1 4 Este 9 Este 0 -- -- 89
2019-11-12 11:00:00 4.2 6 Este 12 Este 0.2 -- -- 98
2019-11-12 10:00:00 2.8 3 Sur 6 Sudoeste 0 -- -- 99
2019-11-12 09:00:00 2 0 Calma 6 Sur 0 -- -- 99
2019-11-12 08:00:00 1.9 0 Calma 5 Sur 0.2 -- -- 99
2019-11-12 07:00:00 1.9 3 Sudoeste 7 Sudoeste 0.4 -- -- 98
2019-11-12 06:00:00 2 0 Calma 6 Sur 0.2 -- -- 98
2019-11-12 05:00:00 2.2 4 Sudoeste 8 Sudoeste 0.4 -- -- 97
2019-11-12 04:00:00 2.3 3 Sudoeste 12 Nordeste 0 -- -- 97
2019-11-12 03:00:00 2.3 2 Sur 18 Noroeste 0 -- -- 97
2019-11-12 02:00:00 2.2 7 Sudoeste 10 Sudoeste 0.2 -- -- 97
2019-11-12 01:00:00 2.5 4 Sur 10 Sudoeste 0.2 -- -- 95
2019-11-12 00:00:00 2.5 4 Sudoeste 7 Noroeste 0.2 -- -- 95
2019-11-11 23:00:00 2.7 3 Sur 21 Nordeste 0 -- -- 93
2019-11-11 22:00:00 2.8 12 Norte 17 Norte 0 -- -- 96
2019-11-11 21:00:00 3.2 14 Norte 23 Norte 0 -- -- 92
2019-11-11 20:00:00 3.3 13 Norte 27 Nordeste 0 -- -- 91
2019-11-11 19:00:00 3.5 3 Sudoeste 37 Nordeste 0 -- -- 86
2019-11-11 18:00:00 3.8 5 Norte 36 Norte 0 -- -- 85
2019-11-11 17:00:00 4.2 14 Norte 38 Norte 0.4 -- -- 92
2019-11-11 16:00:00 4.5 14 Norte 41 Noroeste 0.2 -- -- 92
2019-11-11 15:00:00 4.7 18 Norte 50 Norte 0.4 -- -- 89
2019-11-11 14:00:00 5.3 32 Norte 45 Norte 1.4 -- -- 92
2019-11-11 13:00:00 6.2 17 Norte 53 Norte 1.4 -- -- 84
2019-11-11 12:00:00 6.8 24 Norte 59 Nordeste 2.2 -- -- 90
2019-11-11 11:00:00 7.2 6 Noroeste 33 Norte 2 -- -- 90
2019-11-11 10:00:00 6.9 8 Norte 24 Noroeste 1.4 -- -- 97
2019-11-11 09:00:00 2.8 2 Sur 12 Este 0.8 -- -- 100
2019-11-11 08:00:00 2.1 6 Sur 15 Sudoeste 1 -- -- 99
2019-11-11 07:00:00 2 5 Sudoeste 12 Sudoeste 0.6 -- -- 100
2019-11-11 06:00:00 1.9 4 Sudoeste 9 Sur 0.8 -- -- 99
2019-11-11 05:00:00 2.4 0 Calma 6 Norte 0.6 -- -- 99
2019-11-11 04:00:00 2.1 2 Nordeste 9 Sur 1 -- -- 99
2019-11-11 03:00:00 1.8 4 Sur 8 Sur 0.4 -- -- 99
2019-11-11 02:00:00 1.4 2 Sudoeste 8 Sudoeste 0.4 -- -- 98
2019-11-11 01:00:00 1.5 0 Calma 8 Oeste 0.2 -- -- 98
2019-11-11 00:00:00 1.7 3 Sur 9 Sudoeste 0.4 -- -- 98
2019-11-10 23:00:00 1.8 4 Sudoeste 11 Sudoeste 0.8 -- -- 95
2019-11-10 22:00:00 1.8 3 Sudoeste 8 Sudeste 0.6 -- -- 97
2019-11-10 21:00:00 1.9 2 Sudoeste 19 Oeste 0.8 -- -- 95
2019-11-10 20:00:00 2 5 Oeste 22 Noroeste 1.2 -- -- 93
2019-11-10 19:00:00 1.5 4 Oeste 22 Nordeste 1.2 -- -- 96
2019-11-10 18:00:00 1.5 4 Oeste 29 Norte 1.6 -- -- 97
2019-11-10 17:00:00 1.5 9 Norte 33 Norte 2 -- -- 98
2019-11-10 16:00:00 1 0 Calma 49 Nordeste 1.4 -- -- 95
2019-11-10 15:00:00 1.8 3 Sudoeste 21 Norte 2.2 -- -- 95
2019-11-10 14:00:00 2.5 10 Noroeste 39 Nordeste 1.6 -- -- 87
2019-11-10 13:00:00 1.9 14 Norte 39 Norte 1.8 -- -- 93
2019-11-10 12:00:00 1.1 7 Sudoeste 22 Norte 2 -- -- 96
2019-11-10 11:00:00 0.9 4 Sudoeste 9 Oeste 1.6 -- -- 98
2019-11-10 10:00:00 0.8 7 Sudoeste 11 Sudoeste 1 -- -- 97
2019-11-10 09:00:00 1 5 Sudoeste 15 Noroeste 0.2 -- -- 95
2019-11-10 08:00:00 0.9 0 Calma -- -- 0 -- -- 95
2019-11-10 07:00:00 0.5 0 Calma -- -- 0 -- -- 99
2019-11-10 06:00:00 0.2 0 Calma -- -- 0 -- -- 99
2019-11-10 05:00:00 0.3 0 Calma -- -- 0 -- -- 98
2019-11-10 04:00:00 0.4 0 Calma 24 Noroeste 0.2 -- -- 97
2019-11-10 03:00:00 0.3 0 Calma 29 Noroeste 0 -- -- 96
2019-11-10 02:00:00 0.3 0 Calma 17 Sudoeste 0 -- -- 97
2019-11-10 01:00:00 1 6 Oeste 45 Noroeste 0.6 -- -- 92
2019-11-10 00:00:00 1.5 13 Oeste 37 Noroeste 1.8 -- -- 90
2019-11-09 23:00:00 0.9 6 Sudoeste 23 Norte 2.4 -- -- 95
2019-11-09 22:00:00 2.2 16 Nordeste 26 Norte 2.2 -- -- 98
2019-11-09 21:00:00 3.1 10 Oeste 44 Noroeste 1.8 -- -- 87
2019-11-09 20:00:00 4.2 12 Noroeste 46 Oeste 1 -- -- 90
2019-11-09 19:00:00 5.7 15 Norte 28 Noroeste 0 -- -- 81
2019-11-09 18:00:00 6.1 5 Noroeste 31 Noroeste 0 -- -- 77
2019-11-09 17:00:00 6.4 12 Noroeste 31 Noroeste 0 -- -- 83
2019-11-09 16:00:00 7.1 2 Nordeste 13 Este 0.2 -- -- 89
2019-11-09 15:00:00 7 8 Nordeste 16 Sudoeste 0.8 -- -- 88
2019-11-09 14:00:00 6 10 Sur 20 Sudoeste 1.2 -- -- 88
2019-11-09 13:00:00 4.7 12 Sur 17 Sudoeste 1.4 -- -- 90
2019-11-09 12:00:00 3.2 8 Sur 14 Sudeste 1 -- -- 93
2019-11-09 11:00:00 2.2 3 Sudeste 12 Este 1.6 -- -- 98
2019-11-09 10:00:00 0.8 3 Sur 5 Sudoeste 1 -- -- 98
2019-11-09 09:00:00 0.7 0 Calma 10 Sudoeste 0.6 -- -- 98
2019-11-09 08:00:00 0.8 6 Sudoeste 13 Sudoeste 0.8 -- -- 98
2019-11-09 07:00:00 1.4 5 Sudoeste 11 Sudoeste 0.2 -- -- 96
2019-11-09 06:00:00 1.6 3 Sudeste 6 Sudeste 0.2 -- -- 96
2019-11-09 05:00:00 2 0 Calma 8 Nordeste 0.2 -- -- 94
2019-11-09 04:00:00 2.2 3 Sur 9 Sur 0.4 -- -- 92
2019-11-09 03:00:00 2.9 2 Sudoeste 21 Noroeste 0.6 -- -- 88
2019-11-09 02:00:00 3.4 13 Noroeste 39 Noroeste 0.8 -- -- 83
2019-11-09 01:00:00 3.3 14 Noroeste 43 Noroeste 1 -- -- 86
2019-11-09 00:00:00 3.1 16 Noroeste 47 Noroeste 0.8 -- -- 88
2019-11-08 23:00:00 2.7 9 Norte 29 Noroeste 0.8 -- -- 93
2019-11-08 22:00:00 2.9 14 Noroeste 37 Norte 1.2 -- -- 89
2019-11-08 21:00:00 2.8 19 Noroeste 45 Noroeste 1 -- -- 88
2019-11-08 20:00:00 2.4 14 Noroeste 32 Noroeste 0.6 -- -- 91
2019-11-08 19:00:00 2.2 16 Noroeste 39 Oeste 0.6 -- -- 85
2019-11-08 18:00:00 2.1 14 Noroeste 43 Noroeste 1.2 -- -- 87
2019-11-08 17:00:00 2 14 Norte 40 Nordeste 2 -- -- 94
2019-11-08 16:00:00 2.6 11 Norte 33 Noroeste 2.2 -- -- 93
2019-11-08 15:00:00 1.6 10 Norte 40 Noroeste 2.6 -- -- 95
2019-11-08 14:00:00 2.2 12 Noroeste 39 Noroeste 2.6 -- -- 88
2019-11-08 13:00:00 1.4 8 Oeste 31 Noroeste 2 -- -- 93
2019-11-08 12:00:00 1.7 11 Sudoeste 37 Oeste 1.6 -- -- 90
2019-11-08 11:00:00 1.1 6 Sudoeste 41 Sudoeste 1 -- -- 95
2019-11-08 10:00:00 1.1 9 Oeste 27 Sudoeste 0.4 -- -- 93
2019-11-08 09:00:00 0.8 0 Calma -- -- 0.4 -- -- 96
2019-11-08 08:00:00 0.6 0 Calma -- -- 0.4 -- -- 98
2019-11-08 07:00:00 0.3 0 Calma -- -- 0 -- -- 98
2019-11-08 06:00:00 0.6 0 Calma -- -- 0 -- -- 97
2019-11-08 05:00:00 0.4 0 Calma -- -- 0 -- -- 97
2019-11-08 04:00:00 0.5 0 Calma 0 Calma 0 -- -- 96
2019-11-08 03:00:00 0.5 0 Calma 6 Sudoeste 0 -- -- 97
2019-11-08 02:00:00 0.6 5 Sudoeste 14 Norte 0 -- -- 94
2019-11-08 01:00:00 1.2 4 Norte 14 Noroeste 0 -- -- 90
2019-11-08 00:00:00 1.4 2 Sudoeste 8 Sudoeste 0 -- -- 78
2019-11-07 23:00:00 1.5 2 Sudeste 12 Oeste 0 -- -- 74
2019-11-07 22:00:00 1.3 6 Oeste 15 Oeste 0 -- -- 72
2019-11-07 21:00:00 1.4 5 Oeste 14 Sudoeste 0 -- -- 72
2019-11-07 20:00:00 1.2 6 Oeste 14 Sudoeste 0 -- -- 82
2019-11-07 19:00:00 1.3 8 Sudoeste 15 Sudoeste 0 -- -- 86
2019-11-07 18:00:00 2.6 10 Noroeste 30 Sudoeste 0 -- -- 69
2019-11-07 17:00:00 2.9 4 Nordeste 26 Norte 0 -- -- 82
2019-11-07 16:00:00 3.3 6 Norte 37 Noroeste 0 -- -- 79
2019-11-07 15:00:00 4.8 12 Noroeste 40 Noroeste 0 -- -- 69
2019-11-07 14:00:00 3.9 7 Sudoeste 16 Noroeste 0.2 -- -- 84
2019-11-07 13:00:00 5.3 2 Nordeste 24 Norte 0 -- -- 79
2019-11-07 12:00:00 5.1 9 Norte 21 Nordeste 0 -- -- 83
2019-11-07 11:00:00 5.4 5 Oeste 15 Sudoeste 0 -- -- 80
2019-11-07 10:00:00 3.4 9 Sudoeste 37 Noroeste 0.2 -- -- 91
2019-11-07 09:00:00 2 3 Noroeste 27 Nordeste 0.4 -- -- 94
2019-11-07 08:00:00 2.3 4 Sudoeste 12 Sudoeste 0.2 -- -- 94
2019-11-07 07:00:00 3.3 4 Noroeste 34 Nordeste 0 -- -- 90
2019-11-07 06:00:00 3.5 3 Nordeste 21 Nordeste 0 -- -- 89
2019-11-07 05:00:00 4 12 Norte 26 Noroeste 0.2 -- -- 88
2019-11-07 04:00:00 4.5 9 Noroeste 23 Noroeste 0 -- -- 87
2019-11-07 03:00:00 5 12 Norte 26 Noroeste 0 -- -- 89
2019-11-07 02:00:00 5.8 13 Noroeste 33 Noroeste 0 -- -- 88
2019-11-07 01:00:00 7 6 Oeste 15 Noroeste 0.6 -- -- 93
2019-11-07 00:00:00 6.6 2 Oeste 6 Norte 0.4 -- -- 98
2019-11-06 23:00:00 6.5 0 Calma 5 Sudeste 0.4 -- -- 98
2019-11-06 22:00:00 6.5 2 Sur 8 Sudeste 0.4 -- -- 97
2019-11-06 21:00:00 6.5 0 Calma 9 Este 0.6 -- -- 98
2019-11-06 20:00:00 6.5 2 Sudeste 7 Este 1.2 -- -- 97
2019-11-06 19:00:00 6.7 0 Calma 11 Este 0 -- -- 94
2019-11-06 18:00:00 6.9 5 Sudeste 10 Este 0 -- -- 93
2019-11-06 17:00:00 7.2 2 Sur 8 Sudoeste 0 -- -- 90
2019-11-06 16:00:00 7.2 2 Sudoeste 14 Sudoeste 0 -- -- 90
2019-11-06 15:00:00 7.8 10 Sudoeste 24 Sudoeste 0 -- -- 83
2019-11-06 14:00:00 8.4 4 Oeste 12 Este 0 -- -- 81
2019-11-06 13:00:00 7.9 4 Nordeste 12 Este 0 -- -- 89
2019-11-06 12:00:00 6.9 5 Este 11 Este 0 -- -- 89
2019-11-06 11:00:00 5.2 4 Este 9 Este 0 -- -- 97
2019-11-06 10:00:00 4.2 2 Sudeste 6 Este 0.2 -- -- 97
2019-11-06 09:00:00 3.9 2 Sudeste 4 Sur 0.4 -- -- 97
2019-11-06 08:00:00 3.7 4 Sur 9 Sudoeste 0 -- -- 94
2019-11-06 07:00:00 3.6 3 Oeste 30 Noroeste 0 -- -- 92
2019-11-06 06:00:00 4.2 9 Noroeste 28 Nordeste 0 -- -- 86
2019-11-06 05:00:00 4.2 4 Sudoeste 9 Sudoeste 0.6 -- -- 94
2019-11-06 04:00:00 4.3 3 Sudoeste 8 Sudoeste 0.8 -- -- 95
2019-11-06 03:00:00 4.6 3 Sur 15 Noroeste 0.2 -- -- 92
2019-11-06 02:00:00 5 6 Noroeste 40 Noroeste 0 -- -- 85
2019-11-06 01:00:00 4.9 12 Noroeste 37 Oeste 0.2 -- -- 88
2019-11-06 00:00:00 4.9 13 Noroeste 45 Norte 0 -- -- 90
2019-11-05 23:00:00 4.9 18 Norte 41 Noroeste 0.6 -- -- 90
2019-11-05 22:00:00 4.8 16 Noroeste 40 Norte 1.6 -- -- 92
2019-11-05 21:00:00 4.6 4 Noroeste 33 Norte 2.4 -- -- 92
2019-11-05 20:00:00 5 10 Norte 37 Noroeste 2 -- -- 91
2019-11-05 19:00:00 4.5 8 Oeste 17 Nordeste 2.6 -- -- 91
2019-11-05 18:00:00 4.2 4 Oeste 46 Noroeste 3.4 -- -- 91
2019-11-05 17:00:00 5.5 18 Noroeste 66 Norte 0.4 -- -- 85
2019-11-05 16:00:00 4.1 9 Sudoeste 23 Sudoeste 2 -- -- 92
2019-11-05 15:00:00 3.6 3 Sur 32 Nordeste 3.6 -- -- 96
2019-11-05 14:00:00 4.3 11 Norte 28 Norte 1.4 -- -- 96
2019-11-05 13:00:00 4.7 9 Norte 29 Noroeste 1 -- -- 95
2019-11-05 12:00:00 3.7 8 Este 13 Sur 2.4 -- -- 98
2019-11-05 11:00:00 2.8 9 Este 21 Nordeste 1 -- -- 97
2019-11-05 10:00:00 3.1 4 Nordeste 12 Este 1.6 -- -- 95
2019-11-05 09:00:00 2.6 3 Sudoeste 24 Sudoeste 1.4 -- -- 93
2019-11-05 08:00:00 3.4 9 Sudoeste 21 Oeste 1 -- -- 88
2019-11-05 07:00:00 4.8 12 Sudoeste 27 Sudoeste 0 -- -- 75
2019-11-05 06:00:00 4.5 13 Sudoeste 31 Sudoeste 0 -- -- 77
2019-11-05 05:00:00 4 14 Sudoeste 28 Sudoeste 0 -- -- 82
2019-11-05 04:00:00 3.7 14 Sudoeste 24 Sudoeste 0 -- -- 82
2019-11-05 03:00:00 3.7 10 Sudoeste 22 Sudoeste 0 -- -- 87
2019-11-05 02:00:00 3.6 9 Sudoeste 17 Sudoeste 0 -- -- 85
2019-11-05 01:00:00 3 5 Sudoeste 12 Oeste 0 -- -- 87
2019-11-05 00:00:00 3.4 6 Sudoeste 10 Sudoeste 0 -- -- 85
2019-11-04 23:00:00 4.3 4 Oeste 13 Sudoeste 0 -- -- 79
2019-11-04 22:00:00 4.4 0 Calma 9 Sudoeste 0 -- -- 73
2019-11-04 21:00:00 5.1 5 Sudoeste 17 Oeste 0 -- -- 74
2019-11-04 20:00:00 6.2 6 Oeste 15 Oeste 0 -- -- 68
2019-11-04 19:00:00 6.7 5 Oeste 27 Sudoeste 0 -- -- 66
2019-11-04 18:00:00 8.2 14 Sudoeste 32 Sudoeste 0 -- -- 63
2019-11-04 17:00:00 8.7 5 Oeste 35 Sudoeste 0.4 -- -- 78
2019-11-04 16:00:00 10.6 11 Sudoeste 28 Sudoeste 0 -- -- 68
2019-11-04 15:00:00 10.1 6 Sudoeste 37 Sudoeste 0 -- -- 73
2019-11-04 14:00:00 11.6 15 Sudoeste 44 Sudoeste 0 -- -- 63
2019-11-04 13:00:00 12.2 10 Sudoeste 42 Sudoeste 0 -- -- 64
2019-11-04 12:00:00 11.4 17 Sudoeste 49 Sudoeste 0 -- -- 70
2019-11-04 11:00:00 10.6 9 Oeste 27 Sudoeste 0.6 -- -- 87
2019-11-04 10:00:00 10.6 3 Oeste 26 Sudoeste 0 -- -- 91
2019-11-04 09:00:00 10.1 7 Oeste 32 Sudoeste 0 -- -- 88
2019-11-04 08:00:00 9.7 12 Oeste 35 Oeste 0.2 -- -- 89
2019-11-04 07:00:00 9.7 9 Oeste 35 Sudoeste 0 -- -- 88
2019-11-04 06:00:00 9.7 7 Oeste 31 Sudoeste 0.2 -- -- 88
2019-11-04 05:00:00 10 10 Oeste 39 Sudoeste 0.2 -- -- 89
2019-11-04 04:00:00 10.2 14 Oeste 42 Sudoeste 0 -- -- 87
2019-11-04 03:00:00 10.4 15 Oeste 39 Sudoeste 0 -- -- 86
2019-11-04 02:00:00 10.5 5 Sudoeste 32 Oeste 0.2 -- -- 88
2019-11-04 01:00:00 9.6 5 Este 18 Este 0 -- -- 96
2019-11-04 00:00:00 9.1 8 Este 19 Este 0 -- -- 96
2019-11-03 23:00:00 8.7 6 Este 10 Este 0 -- -- 96
2019-11-03 22:00:00 8.6 3 Sur 12 Sudoeste 0 -- -- 94
2019-11-03 21:00:00 8.6 7 Sudoeste 14 Sudoeste 0.4 -- -- 92
2019-11-03 20:00:00 8.9 5 Sur 23 Sudeste 0 -- -- 92
2019-11-03 19:00:00 9.1 4 Sur 19 Oeste 0.4 -- -- 90
2019-11-03 18:00:00 10.6 11 Sudoeste 18 Sudoeste 0.4 -- -- 76
2019-11-03 17:00:00 11.8 7 Noroeste 31 Noroeste 0 -- -- 67
2019-11-03 16:00:00 13 7 Oeste 38 Noroeste 0 -- -- 54
2019-11-03 15:00:00 12.1 15 Noroeste 37 Noroeste 0 -- -- 55
2019-11-03 14:00:00 11 11 Norte 40 Noroeste 0 -- -- 66
2019-11-03 13:00:00 10 9 Noroeste 31 Noroeste 0 -- -- 59
2019-11-03 12:00:00 8.8 7 Noroeste 26 Noroeste 0 -- -- 64
2019-11-03 11:00:00 6.7 15 Noroeste 33 Norte 0 -- -- 71
2019-11-03 10:00:00 5.7 14 Noroeste 38 Noroeste 0 -- -- 78
2019-11-03 09:00:00 4.8 10 Noroeste 25 Noroeste 0 -- -- 82
2019-11-03 08:00:00 4.2 10 Noroeste 32 Oeste 0.4 -- -- 86
2019-11-03 07:00:00 4.5 10 Noroeste 45 Noroeste 0.2 -- -- 87
2019-11-03 06:00:00 5.3 15 Noroeste 46 Norte 0.6 -- -- 86
2019-11-03 05:00:00 7.2 18 Noroeste 50 Oeste 1.2 -- -- 81
2019-11-03 04:00:00 8.8 12 Oeste 32 Oeste 1.2 -- -- 92
2019-11-03 03:00:00 8.4 3 Sudoeste 21 Oeste 0.2 -- -- 91
2019-11-03 02:00:00 8 4 Este 15 Oeste 0 -- -- 91
2019-11-03 01:00:00 7.8 9 Sudoeste 30 Sudoeste 0.4 -- -- 90
2019-11-03 00:00:00 8 8 Sudoeste 39 Sudoeste 0 -- -- 90
2019-11-02 23:00:00 8.4 10 Sudoeste 46 Sudoeste 0 -- -- 83
2019-11-02 22:00:00 9 18 Sudoeste 55 Sudoeste 0 -- -- 75
2019-11-02 21:00:00 9.3 24 Sudoeste 71 Sudoeste 0 -- -- 73
2019-11-02 20:00:00 9.4 24 Sudoeste 57 Sudoeste 0 -- -- 75
2019-11-02 19:00:00 9.3 10 Oeste 36 Sudoeste 0 -- -- 74
2019-11-02 18:00:00 9.7 16 Sudoeste 38 Sudoeste 0 -- -- 68
2019-11-02 17:00:00 10.2 13 Sudoeste 42 Sudoeste 0 -- -- 70
2019-11-02 16:00:00 10.8 5 Sudoeste 29 Sudoeste 0 -- -- 70
2019-11-02 15:00:00 11.2 10 Sudoeste 43 Oeste 0 -- -- 69
2019-11-02 14:00:00 11.1 16 Sudoeste 33 Sudoeste 0.2 -- -- 72
2019-11-02 13:00:00 11.7 9 Sudoeste 26 Sudoeste 0 -- -- 77
2019-11-02 12:00:00 11.7 7 Sudoeste 20 Sudoeste 0 -- -- 73
2019-11-02 11:00:00 10.8 9 Sudoeste 20 Sudoeste 0 -- -- 83
2019-11-02 10:00:00 11 5 Oeste 13 Sudoeste 0 -- -- 87
2019-11-02 09:00:00 11.1 4 Oeste 13 Oeste 0 -- -- 87
2019-11-02 08:00:00 10.8 6 Oeste 15 Oeste 0.4 -- -- 93
2019-11-02 07:00:00 10.6 3 Sur 8 Norte 0.4 -- -- 97
2019-11-02 06:00:00 10.9 3 Sudoeste 9 Sudoeste 0.2 -- -- 96
2019-11-02 05:00:00 11 3 Sudoeste 9 Sudeste 0.4 -- -- 95
2019-11-02 04:00:00 11.2 0 Calma 8 Nordeste 0 -- -- 95
2019-11-02 03:00:00 11.3 2 Oeste 8 Sudoeste 0 -- -- 92
2019-11-02 02:00:00 11.5 2 Sudoeste 14 Sudoeste 0 -- -- 91
2019-11-02 01:00:00 11.6 5 Este 12 Nordeste 0 -- -- 95
2019-11-02 00:00:00 12 4 Oeste 14 Oeste 0 -- -- 90
2019-11-01 23:00:00 11.7 4 Sudoeste 17 Noroeste 0 -- -- 92
2019-11-01 22:00:00 12.3 5 Oeste 22 Oeste 0.4 -- -- 91
2019-11-01 21:00:00 12.1 5 Oeste 15 Sudoeste 0 -- -- 90
2019-11-01 20:00:00 12 4 Sudeste 12 Sudoeste 0 -- -- 90
2019-11-01 19:00:00 12.6 3 Oeste 11 Sudoeste 0 -- -- 87
2019-11-01 18:00:00 13.6 5 Noroeste 16 Sudoeste 0 -- -- 89
2019-11-01 17:00:00 14.5 9 Oeste 30 Sudoeste 0 -- -- 83
2019-11-01 16:00:00 14.5 2 Oeste 24 Sudoeste 0.4 -- -- 91
2019-11-01 15:00:00 14.5 9 Oeste 19 Oeste 2.4 -- -- 93
2019-11-01 14:00:00 14.4 7 Sudoeste 22 Sudoeste 3.4 -- -- 93
2019-11-01 13:00:00 14.3 3 Este 5 Nordeste 2.6 -- -- 95
2019-11-01 12:00:00 14.4 2 Nordeste 13 Este 0 -- -- 94
2019-11-01 11:00:00 13.8 0 Calma 10 Este 0 -- -- 96
2019-11-01 10:00:00 12.9 2 Sur 9 Sudoeste 0 -- -- 98
2019-11-01 09:00:00 11.9 6 Sudoeste 9 Sudoeste 0 -- -- 99
2019-11-01 08:00:00 11.6 0 Calma 8 Sur 0 -- -- 99
2019-11-01 07:00:00 11.5 3 Norte 6 Norte 0.2 -- -- 99
2019-11-01 06:00:00 11.5 2 Noroeste 5 Noroeste 0 -- -- 98
2019-11-01 05:00:00 11.4 0 Calma 5 Este 0 -- -- 98
2019-11-01 04:00:00 11.9 0 Calma 6 Norte 0 -- -- 97
2019-11-01 03:00:00 12.5 5 Oeste 9 Sudoeste 0 -- -- 97
2019-11-01 02:00:00 12.2 0 Calma 11 Sudoeste 0.2 -- -- 97
2019-11-01 01:00:00 12.2 5 Sudoeste 12 Sudoeste 0 -- -- 98
2019-11-01 00:00:00 11.7 0 Calma 5 Noroeste 0 -- -- 97
2019-10-31 23:00:00 12.2 0 Calma 5 Noroeste 0 -- -- 96
2019-10-31 22:00:00 12.5 0 Calma 9 Sudoeste 0 -- -- 96
2019-10-31 21:00:00 12.7 0 Calma 5 Sudoeste 0 -- -- 95
2019-10-31 20:00:00 12.9 0 Calma 4 Noroeste 1.6 -- -- 93
2019-10-31 19:00:00 13.5 3 Noroeste 5 Norte 0 -- -- 88
2019-10-31 18:00:00 14.2 0 Calma 3 Noroeste 0 -- -- 83
2019-10-31 17:00:00 14.8 0 Calma 3 Este 0 -- -- 84
2019-10-31 16:00:00 14.9 0 Calma 7 Noroeste 0 -- -- 81
2019-10-31 15:00:00 15.1 0 Calma 4 Nordeste 0 -- -- 76
2019-10-31 14:00:00 14.7 0 Calma 5 Norte 0 -- -- 78
2019-10-31 13:00:00 14.1 3 Norte 6 Norte 0 -- -- 84
2019-10-31 12:00:00 12.8 3 Norte 7 Norte 0 -- -- 90
2019-10-31 11:00:00 10.8 3 Nordeste 4 Nordeste 0 -- -- 95
2019-10-31 10:00:00 8.3 0 Calma 6 Este 0 -- -- 99
2019-10-31 09:00:00 7.8 3 Este 5 Este 0 -- -- 100
2019-10-31 08:00:00 7.5 3 Este 9 Este 0 -- -- 100
2019-10-31 07:00:00 7.8 3 Este 6 Este 0 -- -- 99
2019-10-31 06:00:00 7.8 3 Este 6 Este 0 -- -- 99
2019-10-31 05:00:00 8.3 5 Este 8 Este 0 -- -- 99
2019-10-31 04:00:00 9.1 4 Este 7 Este 0 -- -- 99
2019-10-31 03:00:00 9.7 3 Este 5 Este 0 -- -- 98
2019-10-31 02:00:00 10.1 0 Calma 3 Sudeste 0 -- -- 98
2019-10-31 01:00:00 10.5 0 Calma 4 Sudoeste 0 -- -- 97
2019-10-31 00:00:00 11.2 0 Calma 5 Sudoeste 0 -- -- 97
2019-10-30 23:00:00 11.8 2 Sudoeste 5 Sudeste 0.6 -- -- 98
2019-10-30 22:00:00 11.9 5 Noroeste 7 Noroeste 1.2 -- -- 97
2019-10-30 21:00:00 12.1 2 Sur 4 Sudoeste 0 -- -- 96
2019-10-30 20:00:00 12.2 3 Sudoeste 4 Sudoeste 0 -- -- 95
2019-10-30 19:00:00 12.3 0 Calma 6 Sudeste 0 -- -- 95
2019-10-30 18:00:00 12.6 0 Calma 8 Sudeste 0.2 -- -- 93
2019-10-30 17:00:00 13.1 4 Nordeste 13 Norte 0 -- -- 90
2019-10-30 16:00:00 13.6 2 Nordeste 10 Sudoeste 0 -- -- 87
2019-10-30 15:00:00 13.3 3 Norte 11 Nordeste 0 -- -- 87
2019-10-30 14:00:00 13.8 5 Nordeste 12 Nordeste 0 -- -- 89
2019-10-30 13:00:00 13.1 4 Este 7 Sudeste 0.2 -- -- 89
2019-10-30 12:00:00 11.8 3 Noroeste 5 Oeste 0.4 -- -- 94
2019-10-30 11:00:00 11.4 0 Calma 5 Sur 0 -- -- 91
2019-10-30 10:00:00 10.4 0 Calma 4 Sudoeste 0 -- -- 94
2019-10-30 09:00:00 8.9 2 Sur 5 Sudoeste 0 -- -- 95
2019-10-30 08:00:00 8.6 2 Noroeste 4 Noroeste 0 -- -- 95
2019-10-30 07:00:00 8.4 0 Calma 5 Noroeste 0 -- -- 95
2019-10-30 06:00:00 8 3 Noroeste 4 Noroeste 0 -- -- 96
2019-10-30 05:00:00 7.6 0 Calma 5 Sudoeste 0 -- -- 96
2019-10-30 04:00:00 7.1 2 Norte 4 Noroeste 0 -- -- 96
2019-10-30 03:00:00 7.2 0 Calma 4 Sudoeste 0 -- -- 94
2019-10-30 02:00:00 7.8 2 Sudoeste 5 Noroeste 0 -- -- 94
2019-10-30 01:00:00 8.3 0 Calma 4 Norte 0 -- -- 91
2019-10-30 00:00:00 8.4 0 Calma 4 Este 0 -- -- 91
2019-10-29 23:00:00 8.1 2 Noroeste 5 Noroeste 0 -- -- 92
2019-10-29 22:00:00 8.7 0 Calma 5 Noroeste 0 -- -- 90
2019-10-29 21:00:00 9.1 0 Calma 4 Norte 0 -- -- 87
2019-10-29 20:00:00 9.6 2 Noroeste 5 Sudeste 0 -- -- 84
2019-10-29 19:00:00 11.3 0 Calma 4 Este 0 -- -- 76
2019-10-29 18:00:00 13.6 0 Calma 11 Sur 0 -- -- 65
2019-10-29 17:00:00 16.3 8 Sur 24 Sudoeste 0 -- -- 55
2019-10-29 16:00:00 17.3 9 Sur 21 Sur 0 -- -- 61
2019-10-29 15:00:00 17.6 10 Sur 24 Sudoeste 0 -- -- 59
2019-10-29 14:00:00 16.7 10 Sudoeste 20 Sur 0 -- -- 59
2019-10-29 13:00:00 16.6 15 Sur 23 Sudoeste 0 -- -- 62
2019-10-29 12:00:00 15.5 8 Sur 15 Sur 0 -- -- 68
2019-10-29 11:00:00 15.1 9 Sur 12 Sur 0 -- -- 78
2019-10-29 10:00:00 12.7 8 Sudeste 17 Sudeste 0 -- -- 90
2019-10-29 09:00:00 11.6 4 Este 13 Sudoeste 0 -- -- 96
2019-10-29 08:00:00 11.2 3 Sudoeste 9 Sudoeste 0 -- -- 96
2019-10-29 07:00:00 11.3 2 Oeste 5 Sudoeste 0 -- -- 96
2019-10-29 06:00:00 11.5 2 Sudoeste 5 Sudoeste 0 -- -- 95
2019-10-29 05:00:00 11.4 3 Sudoeste 6 Sudoeste 0 -- -- 94
2019-10-29 04:00:00 11.8 0 Calma 9 Sudoeste 0 -- -- 91
2019-10-29 03:00:00 11.6 4 Sudoeste 9 Sudoeste 0 -- -- 92
2019-10-29 02:00:00 11.5 3 Oeste 6 Sudoeste 0 -- -- 90
2019-10-29 01:00:00 11.8 0 Calma 9 Noroeste 0 -- -- 89
2019-10-29 00:00:00 11.5 0 Calma 4 Sudoeste 0 -- -- 87
2019-10-28 23:00:00 11.6 0 Calma 9 Este 0 -- -- 87
2019-10-28 22:00:00 11.9 2 Sudoeste 6 Noroeste 0 -- -- 84
2019-10-28 21:00:00 12.2 0 Calma 7 Noroeste 0 -- -- 82
2019-10-28 20:00:00 12.4 0 Calma 4 Noroeste 0 -- -- 81
2019-10-28 19:00:00 13.3 0 Calma 9 Sudoeste 0 -- -- 75
2019-10-28 18:00:00 14.9 4 Oeste 24 Sur 0 -- -- 67
2019-10-28 17:00:00 16.9 18 Sur 23 Sur 0 -- -- 62
2019-10-28 16:00:00 18.3 6 Norte 18 Sudoeste 0 -- -- 60
2019-10-28 15:00:00 18.6 5 Sur 15 Sudoeste 0 -- -- 54
2019-10-28 14:00:00 17.9 3 Nordeste 8 Norte 0 -- -- 63
2019-10-28 13:00:00 16.4 3 Nordeste 6 Nordeste 0 -- -- 71
2019-10-28 12:00:00 15 3 Nordeste 5 Nordeste 0 -- -- 73
2019-10-28 11:00:00 13 2 Nordeste 5 Nordeste 0 -- -- 76
2019-10-28 10:00:00 10.5 3 Sudeste 5 Sudeste 0 -- -- 85
2019-10-28 09:00:00 7.9 0 Calma 6 Sur 0 -- -- 93
2019-10-28 08:00:00 6.9 0 Calma 5 Sudoeste 0 -- -- 93
2019-10-28 07:00:00 7.3 0 Calma 4 Noroeste 0 -- -- 94
2019-10-28 06:00:00 7.1 0 Calma 2 Sudoeste 0 -- -- 94
2019-10-28 05:00:00 7.4 3 Norte 12 Sudoeste 0 -- -- 94
2019-10-28 04:00:00 7.5 0 Calma 3 Sudoeste 0 -- -- 94
2019-10-28 03:00:00 7.7 0 Calma 3 Sudoeste 0 -- -- 93
2019-10-28 02:00:00 8.1 0 Calma 5 Noroeste 0 -- -- 92
2019-10-28 01:00:00 8.8 0 Calma 3 Sudoeste 0 -- -- 91
2019-10-28 00:00:00 9.3 0 Calma 3 Nordeste 0 -- -- 88
2019-10-27 23:00:00 10.3 0 Calma 6 Este 0 -- -- 84
2019-10-27 22:00:00 11 4 Sur 13 Sudoeste 0 -- -- 84
2019-10-27 21:00:00 11.3 2 Norte 8 Noroeste 0 -- -- 83
2019-10-27 20:00:00 12.2 0 Calma 14 Sudoeste 0 -- -- 79
2019-10-27 19:00:00 13.1 5 Sudoeste 9 Sudoeste 0 -- -- 74
2019-10-27 18:00:00 14.5 3 Sudoeste 11 Sur 0 -- -- 70
2019-10-27 17:00:00 16.1 3 Sudoeste 12 Sur 0 -- -- 61
2019-10-27 16:00:00 17.6 9 Nordeste 12 Nordeste 0 -- -- 68
2019-10-27 15:00:00 17.5 9 Sudeste 15 Sudeste 0 -- -- 66
2019-10-27 14:00:00 16.3 2 Norte 9 Sur 0 -- -- 72
2019-10-27 13:00:00 13.9 2 Este 7 Norte 0 -- -- 76
2019-10-27 12:00:00 12.1 4 Nordeste 5 Nordeste 0 -- -- 87
2019-10-27 11:00:00 9.3 0 Calma 4 Este 0 -- -- 91
2019-10-27 10:00:00 7.5 0 Calma 2 Sur 0 -- -- 99
2019-10-27 09:00:00 6.3 0 Calma 4 Sudoeste 0 -- -- 99
2019-10-27 08:00:00 5.8 0 Calma 4 Sudoeste 0 -- -- 99
2019-10-27 07:00:00 5.6 0 Calma 4 Sur 0 -- -- 98
2019-10-27 06:00:00 5.6 0 Calma 5 Noroeste 0 -- -- 97
2019-10-27 05:00:00 5.7 0 Calma 2 Sudeste 0 -- -- 97
2019-10-27 04:00:00 5.6 0 Calma 3 Sudoeste 0 -- -- 96
2019-10-27 03:00:00 6 0 Calma 2 Norte 0 -- -- 96
2019-10-27 02:00:00 6.2 0 Calma 5 Noroeste 0 -- -- 96
2019-10-27 01:00:00 6.5 0 Calma 4 Noroeste 0 -- -- 94
2019-10-27 00:00:00 7.2 0 Calma 5 Noroeste 0 -- -- 94
2019-10-26 23:00:00 7.8 0 Calma 3 Sudoeste 0 -- -- 90
2019-10-26 22:00:00 8.7 0 Calma 6 Noroeste 0 -- -- 88
2019-10-26 21:00:00 10.2 0 Calma 5 Sudeste 0 -- -- 81
2019-10-26 20:00:00 12.1 3 Norte 9 Sudoeste 0 -- -- 73
2019-10-26 19:00:00 14.4 3 Sudoeste 10 Sur 0 -- -- 64
2019-10-26 18:00:00 17.8 5 Sur 15 Sudoeste 0 -- -- 57
2019-10-26 17:00:00 18.7 9 Sudoeste 21 Sudoeste 0 -- -- 50
2019-10-26 16:00:00 18.6 7 Oeste 24 Sur 0 -- -- 48
2019-10-26 15:00:00 18.5 10 Sudoeste 17 Sudoeste 0 -- -- 48
2019-10-26 14:00:00 17.9 4 Sudeste 16 Sur 0 -- -- 57
2019-10-26 13:00:00 14.5 3 Sudeste 8 Sudeste 0 -- -- 82
2019-10-26 12:00:00 10.4 0 Calma 5 Sudeste 0 -- -- 88
2019-10-26 11:00:00 7.3 0 Calma 6 Sur 0 -- -- 96
2019-10-26 10:00:00 4.9 0 Calma 4 Sudoeste 0 -- -- 100
2019-10-26 09:00:00 2.8 0 Calma 5 Sur 0 -- -- 100
2019-10-26 08:00:00 2.8 0 Calma 3 Sudoeste 0 -- -- 100
2019-10-26 07:00:00 3.1 0 Calma 4 Sudoeste 0 -- -- 99
2019-10-26 06:00:00 3.2 0 Calma 9 Sudoeste 0 -- -- 100
2019-10-26 05:00:00 3.4 0 Calma 3 Sudoeste 0 -- -- 99
2019-10-26 04:00:00 3.7 0 Calma 2 Sur 0 -- -- 99
2019-10-26 03:00:00 3.6 0 Calma 6 Sudoeste 0 -- -- 98
2019-10-26 02:00:00 3.8 0 Calma 4 Noroeste 0 -- -- 97
2019-10-26 01:00:00 4.3 0 Calma 3 Noroeste 0 -- -- 96
2019-10-26 00:00:00 5 0 Calma 4 Noroeste 0 -- -- 95
2019-10-25 23:00:00 5.9 0 Calma 3 Noroeste 0 -- -- 94
2019-10-25 22:00:00 6.9 2 Sudoeste 6 Sudoeste 0 -- -- 91
2019-10-25 21:00:00 8.6 3 Sudoeste 7 Sur 0 -- -- 85
2019-10-25 20:00:00 10.7 2 Oeste 13 Sudoeste 0 -- -- 75
2019-10-25 19:00:00 12.8 4 Sur 7 Sur 0 -- -- 69
2019-10-25 18:00:00 16.3 2 Noroeste 5 Nordeste 0 -- -- 59
2019-10-25 17:00:00 16.4 5 Nordeste 10 Sur 0 -- -- 62
2019-10-25 16:00:00 16.1 4 Este 8 Nordeste 0 -- -- 61
2019-10-25 15:00:00 15.8 3 Sur 10 Sur 0 -- -- 58
2019-10-25 14:00:00 15.3 5 Sur 15 Sur 0 -- -- 63
2019-10-25 13:00:00 14.1 7 Sur 13 Sur 0 -- -- 74
2019-10-25 12:00:00 12.9 5 Sur 13 Sudoeste 0 -- -- 78
2019-10-25 11:00:00 10.9 9 Sur 14 Sur 0 -- -- 86
2019-10-25 10:00:00 7.8 0 Calma 4 Sudoeste 0 -- -- 97
2019-10-25 09:00:00 6.5 3 Sudoeste 7 Sur 0 -- -- 98
2019-10-25 08:00:00 7.6 3 Sudoeste 8 Sudoeste 0 -- -- 97
2019-10-25 07:00:00 8.2 6 Sudoeste 9 Sudoeste 0 -- -- 98
2019-10-25 06:00:00 8 0 Calma 7 Sur 0 -- -- 98
2019-10-25 05:00:00 8.6 4 Sudoeste 8 Sudoeste 0 -- -- 95
2019-10-25 04:00:00 9.4 0 Calma 5 Sur 0 -- -- 95
2019-10-25 03:00:00 9.4 3 Sudoeste 6 Sur 0 -- -- 95
2019-10-25 02:00:00 9.5 4 Sur 10 Sudeste 0 -- -- 95
2019-10-25 01:00:00 9.7 5 Sudoeste 8 Sur 0 -- -- 95
2019-10-25 00:00:00 9.5 4 Sudoeste 6 Sudoeste 0 -- -- 95
2019-10-24 23:00:00 9.6 2 Oeste 6 Sudoeste 0 -- -- 95
2019-10-24 22:00:00 9.6 0 Calma 5 Sur 0 -- -- 94
2019-10-24 21:00:00 10.2 2 Sur 10 Sudoeste 0 -- -- 92
2019-10-24 20:00:00 10.8 6 Sudoeste 12 Sur 0 -- -- 89
2019-10-24 19:00:00 11.5 4 Sudoeste 10 Sudoeste 0 -- -- 87
2019-10-24 18:00:00 12.3 4 Sudoeste 17 Este 0 -- -- 83
2019-10-24 17:00:00 13.8 7 Este 19 Norte 0 -- -- 80
2019-10-24 16:00:00 12.8 13 Este 21 Este 0 -- -- 81
2019-10-24 15:00:00 12.4 10 Sudoeste 19 Sudoeste 0 -- -- 81
2019-10-24 14:00:00 11.8 4 Norte 10 Norte 0 -- -- 87
2019-10-24 13:00:00 10.3 5 Norte 9 Sur 0.2 -- -- 89
2019-10-24 12:00:00 7.5 3 Sur 9 Este 0 -- -- 94
2019-10-24 11:00:00 5.2 0 Calma 8 Sudoeste 1.4 -- -- 97
2019-10-24 10:00:00 5 3 Sur 5 Sur 0.2 -- -- 96
2019-10-24 09:00:00 4.7 0 Calma 7 Este 0 -- -- 95
2019-10-24 08:00:00 4.7 3 Sur 9 Este 0.2 -- -- 96
2019-10-24 07:00:00 4.9 2 Sudoeste 4 Sudoeste 0 -- -- 93
2019-10-24 06:00:00 5 3 Sudoeste 9 Sudoeste 0 -- -- 91
2019-10-24 05:00:00 5.2 6 Sudoeste 26 Oeste 0 -- -- 88
2019-10-24 04:00:00 5.7 9 Noroeste 30 Noroeste 0 -- -- 82
2019-10-24 03:00:00 5.2 3 Oeste 17 Noroeste 0 -- -- 90
2019-10-24 02:00:00 4.5 5 Sur 23 Norte 0.2 -- -- 95
2019-10-24 01:00:00 4.4 15 Nordeste 24 Nordeste 0.2 -- -- 97
2019-10-24 00:00:00 4 3 Norte 20 Norte 0.6 -- -- 94
2019-10-23 23:00:00 4.4 10 Norte 23 Norte 1 -- -- 92
2019-10-23 22:00:00 5 13 Norte 33 Norte 0 -- -- 88
2019-10-23 21:00:00 5.1 16 Norte 37 Noroeste 0.2 -- -- 88
2019-10-23 20:00:00 5.5 17 Noroeste 36 Noroeste 0.6 -- -- 86
2019-10-23 19:00:00 6 17 Noroeste 33 Noroeste 1 -- -- 91
2019-10-23 18:00:00 6.3 6 Noroeste 19 Noroeste 0.6 -- -- 89
2019-10-23 17:00:00 6.5 4 Noroeste 21 Noroeste 0.4 -- -- 89
2019-10-23 16:00:00 7 10 Noroeste 26 Norte 0.6 -- -- 89
2019-10-23 15:00:00 7.8 7 Noroeste 26 Norte 0.6 -- -- 91
2019-10-23 14:00:00 7.4 12 Norte 18 Norte 1.4 -- -- 96
2019-10-23 13:00:00 7.4 12 Nordeste 22 Noroeste 0.4 -- -- 93
2019-10-23 12:00:00 7.6 8 Norte 27 Nordeste 0.6 -- -- 89
2019-10-23 11:00:00 8 14 Norte 42 Nordeste 0 -- -- 88
2019-10-23 10:00:00 7.8 11 Norte 35 Norte 0.2 -- -- 88
2019-10-23 09:00:00 7.7 12 Norte 47 Norte 0 -- -- 88
2019-10-23 08:00:00 7.8 23 Norte 61 Nordeste 0 -- -- 87
2019-10-23 07:00:00 8 22 Norte 57 Noroeste 0 -- -- 84
2019-10-23 06:00:00 7.9 27 Norte 67 Norte 0 -- -- 83
2019-10-23 05:00:00 7.7 41 Norte 64 Nordeste 0 -- -- 86
2019-10-23 04:00:00 7.2 31 Norte 53 Norte 0 -- -- 88
2019-10-23 03:00:00 7.4 16 Norte 34 Nordeste 0 -- -- 89
2019-10-23 02:00:00 6.9 22 Norte 47 Nordeste 0 -- -- 92
2019-10-23 01:00:00 6.5 10 Norte 39 Norte 0 -- -- 88
2019-10-23 00:00:00 6.5 18 Norte 35 Noroeste 0 -- -- 88
2019-10-22 23:00:00 6.6 14 Norte 34 Norte 0 -- -- 85
2019-10-22 22:00:00 6.2 17 Norte 45 Norte 0 -- -- 85
2019-10-22 21:00:00 6.4 18 Norte 36 Norte 0 -- -- 85
2019-10-22 20:00:00 6.4 14 Norte 38 Noroeste 0 -- -- 87
2019-10-22 19:00:00 6.3 10 Norte 31 Noroeste 0.2 -- -- 90
2019-10-22 18:00:00 6.8 12 Norte 33 Norte 0 -- -- 87
2019-10-22 17:00:00 7.3 13 Norte 30 Norte 0 -- -- 84
2019-10-22 16:00:00 7.9 23 Norte 35 Nordeste 0 -- -- 86
2019-10-22 15:00:00 8.2 21 Noroeste 32 Noroeste 0.2 -- -- 77
2019-10-22 14:00:00 8.9 9 Nordeste 18 Norte 0 -- -- 78
2019-10-22 13:00:00 6.7 0 Calma 6 Sudeste 0 -- -- 83
2019-10-22 12:00:00 3.7 0 Calma 5 Oeste 0 -- -- 96
2019-10-22 11:00:00 1.9 2 Sur 9 Este 0 -- -- 100
2019-10-22 10:00:00 1.4 7 Este 13 Este 0 -- -- 100
2019-10-22 09:00:00 1 3 Sudeste 8 Este 0 -- -- 100
2019-10-22 08:00:00 1.2 2 Sur 8 Este 0 -- -- 99
2019-10-22 07:00:00 1.3 4 Sudeste 10 Este 0 -- -- 99
2019-10-22 06:00:00 1.4 2 Sudeste 11 Sudeste 0 -- -- 99
2019-10-22 05:00:00 1.9 2 Sudeste 9 Sudeste 0 -- -- 99
2019-10-22 04:00:00 2.1 4 Sudeste 9 Este 0 -- -- 99
2019-10-22 03:00:00 2.4 6 Este 11 Este 0 -- -- 99
2019-10-22 02:00:00 2.9 3 Este 12 Este 0 -- -- 98
2019-10-22 01:00:00 3 4 Este 9 Este 0 -- -- 98
2019-10-22 00:00:00 3 3 Nordeste 8 Este 0 -- -- 97